Flight Track Log - Related Links

Times and Time Zones

All times are in EDT time to prevent confusion due to time zone crossing. See the UAL1414 flight status page for this flight to view local times or setup timezone preferences in your user account.

Time Position Orientation Groundspeed Altitude Reporting Facility
EDT Latitude Longitude Course Direction KTS MPH feet Rate Location/Type
Mon 07:54:09 PM 37.6333 -122.3500 74° East 186 214 1,300  Level Northern Cal TRACON
Mon 07:55:09 PM 37.6833 -122.3000 38° Northeast 237 273 3,100 2,200 Climbing Northern Cal TRACON
Mon 07:56:00 PM 37.8456 -121.9577 54° Northeast  Level FlightAware Approximate
Mon 07:56:09 PM 37.7333 -122.2167 53° Northeast 279 321 5,700  Level Northern Cal TRACON
Mon 07:57:00 PM 37.9167 -121.8140 90° East  Level FlightAware Approximate
Mon 07:57:03 PM 37.7667 -122.1500 58° Northeast 297 342 8,200  Level Northern Cal TRACON
Mon 07:58:00 PM 37.9444 -121.6510 82° East  Level FlightAware Approximate
Mon 07:58:03 PM 37.7833 -122.0333 80° East 316 364 11,100  Level Northern Cal TRACON
Mon 07:59:00 PM 37.9754 -121.4858 74° East  Level FlightAware Approximate
Mon 08:00:21 PM 37.8719 -121.7436 69° East 409 471 14,200  Level Oakland Center
Mon 08:01:22 PM 37.9114 -121.5981 71° East 429 494 16,400 2,066 Climbing Oakland Center
Mon 08:02:23 PM 37.9525 -121.4514 70° East 441 507 18,400 1,869 Climbing Oakland Center
Mon 08:03:24 PM 37.9939 -121.2997 71° East 453 521 20,200 1,268 Climbing Oakland Center
Mon 08:04:26 PM 38.0364 -121.1419 71° East 472 543 21,000 390 Climbing Oakland Center
Mon 08:05:27 PM 38.0992 -120.9600 66° East 479 551 21,000 146 Level Oakland Center
Mon 08:06:29 PM 38.1683 -120.8211 58° Northeast 468 539 21,300 585 Climbing Oakland Center
Mon 08:07:30 PM 38.2397 -120.6803 57° Northeast 475 547 22,200 1,082 Climbing Oakland Center
Mon 08:08:31 PM 38.3106 -120.5336 58° Northeast 486 559 23,500 1,317 Climbing Oakland Center
Mon 08:09:33 PM 38.3397 -120.3608 78° East 502 578 24,900 1,366 Climbing Oakland Center
Mon 08:10:34 PM 38.3658 -120.1872 79° East 502 578 26,300 1,525 Climbing Oakland Center
Mon 08:11:35 PM 38.3950 -120.0128 78° East 503 579 28,000 1,366 Climbing Oakland Center
Mon 08:12:37 PM 38.4228 -119.8386 78° East 503 579 29,100 1,220 Climbing Oakland Center
Mon 08:13:38 PM 38.4489 -119.6500 80° East 505 581 30,500 1,230 Climbing Oakland Center
Mon 08:14:39 PM 38.4758 -119.4731 79° East 510 587 31,600 976 Climbing Oakland Center
Mon 08:15:41 PM 38.5022 -119.2961 79° East 511 588 32,500 976 Climbing Oakland Center
Mon 08:16:42 PM 38.5339 -119.0792 79° East 520 598 33,600 1,131 Climbing Oakland Center
Mon 08:17:43 PM 38.5594 -118.9006 80° East 516 594 34,800 976 Climbing Oakland Center
Mon 08:18:45 PM 38.5853 -118.7244 79° East 509 586 35,600 683 Climbing Oakland Center
Mon 08:19:46 PM 38.6106 -118.5475 80° East 509 586 36,200 689 Climbing Oakland Center
Mon 08:20:47 PM 38.6353 -118.3708 80° East 509 586 37,000 390 Climbing Oakland Center
Mon 08:21:49 PM 38.6608 -118.1931 80° East 510 587 37,000  Level Oakland Center
Mon 08:22:50 PM 38.6847 -118.0189 80° East 505 581 37,000  Level Oakland Center
Mon 08:23:51 PM 38.7083 -117.8439 80° East 503 579 37,000  Level Oakland Center
Mon 08:24:53 PM 38.7322 -117.6644 80° East 501 577 37,000  Level Oakland Center
Mon 08:25:14 PM 38.7408 -117.5928 81° East 503 579 37,000  Level Salt Lake Center
Mon 08:25:54 PM 38.7606 -117.4503 80° East 505 581 37,000  Level Oakland Center
Mon 08:26:55 PM 38.7839 -117.2708 80° East 506 582 37,000  Level Oakland Center
Mon 08:27:17 PM 38.7875 -117.2356 83° East 506 582 37,000  Level Salt Lake Center
Mon 08:27:57 PM 38.8069 -117.0936 80° East 503 579 37,000  Level Oakland Center
Mon 08:28:58 PM 38.8292 -116.9156 81° East 502 578 37,000  Level Oakland Center
Mon 08:29:20 PM 38.8369 -116.8442 82° East 504 580 37,000  Level Salt Lake Center
Mon 08:30:22 PM 38.8589 -116.6664 81° East 503 579 37,000  Level Salt Lake Center
Mon 08:31:00 PM 38.8742 -116.5608 79° East 501 577 37,000  Level Oakland Center
Mon 08:31:24 PM 38.8817 -116.4900 82° East 501 577 37,000  Level Salt Lake Center
Mon 08:32:25 PM 38.9028 -116.3114 81° East 504 580 37,000  Level Salt Lake Center
Mon 08:33:27 PM 38.9250 -116.1342 81° East 504 580 37,000  Level Salt Lake Center
Mon 08:34:29 PM 38.9458 -115.9556 81° East 506 582 37,000  Level Salt Lake Center
Mon 08:35:30 PM 38.9675 -115.7753 81° East 509 586 37,000  Level Salt Lake Center
Mon 08:36:32 PM 38.9881 -115.5964 82° East 507 583 37,000  Level Salt Lake Center
Mon 08:37:33 PM 39.0125 -115.3819 82° East 504 580 37,000  Level Salt Lake Center
Mon 08:38:35 PM 39.0314 -115.2242 81° East 509 586 37,000  Level Salt Lake Center
Mon 08:39:37 PM 39.0508 -115.0444 82° East 508 585 37,000  Level Salt Lake Center
Mon 08:40:38 PM 39.0739 -114.8294 82° East 506 582 37,000  Level Salt Lake Center
Mon 08:41:40 PM 39.0947 -114.6483 82° East 511 588 37,000  Level Salt Lake Center
Mon 08:42:41 PM 39.1131 -114.4700 82° East 506 582 37,000  Level Salt Lake Center
Mon 08:43:43 PM 39.1317 -114.2908 82° East 504 580 37,000  Level Salt Lake Center
Mon 08:44:45 PM 39.1508 -114.1111 82° East 506 582 37,000  Level Salt Lake Center
Mon 08:45:46 PM 39.1681 -113.9331 83° East 504 580 37,000  Level Salt Lake Center
Mon 08:46:48 PM 39.1864 -113.7547 82° East 502 578 37,000  Level Salt Lake Center
Mon 08:47:50 PM 39.2044 -113.5778 82° East 499 574 37,000  Level Salt Lake Center
Mon 08:48:51 PM 39.2233 -113.3669 83° East 494 568 37,000  Level Salt Lake Center
Mon 08:49:53 PM 39.2408 -113.1908 83° East 496 571 37,000  Level Salt Lake Center
Mon 08:50:54 PM 39.2564 -113.0178 83° East 488 562 37,000  Level Salt Lake Center
Mon 08:51:56 PM 39.2725 -112.8431 84° East 490 564 37,000  Level Salt Lake Center
Mon 08:52:00 PM 39.2725 -112.8292 84° East  Level FlightAware Approximate
Mon 08:52:58 PM 39.2886 -112.6689 83° East 489 563 37,000  Level Salt Lake Center
Mon 08:53:59 PM 39.3078 -112.4797 82° East 486 559 37,000  Level Salt Lake Center
Mon 08:55:01 PM 39.3408 -112.3083 76° East 493 567 37,000  Level Salt Lake Center
Mon 08:56:02 PM 39.3719 -112.1361 77° East 493 567 37,000  Level Salt Lake Center
Mon 08:57:04 PM 39.4036 -111.9653 76° East 492 566 37,000  Level Salt Lake Center
Mon 08:58:05 PM 39.4342 -111.7933 77° East 493 567 37,000  Level Salt Lake Center
Mon 08:59:07 PM 39.4650 -111.6225 77° East 492 566 37,000  Level Salt Lake Center
Mon 09:00:08 PM 39.5033 -111.4183 76° East 491 565 37,000  Level Salt Lake Center
Mon 09:01:10 PM 39.5314 -111.2547 77° East 493 567 37,000  Level Salt Lake Center
Mon 09:02:11 PM 39.5608 -111.0917 77° East 487 560 37,000  Level Salt Lake Center
Mon 09:03:13 PM 39.5947 -110.9006 77° East 488 562 37,000  Level Salt Lake Center
Mon 09:04:14 PM 39.6219 -110.7361 78° East 486 559 37,000  Level Salt Lake Center
Mon 09:05:16 PM 39.6547 -110.5464 77° East 484 557 37,000  Level Salt Lake Center
Mon 09:06:17 PM 39.6822 -110.3836 78° East 482 555 37,000  Level Salt Lake Center
Mon 09:07:19 PM 39.7094 -110.2206 78° East 483 556 37,000  Level Salt Lake Center
Mon 09:08:20 PM 39.7394 -110.0308 78° East 480 552 37,000  Level Salt Lake Center
Mon 09:09:22 PM 39.7669 -109.8681 78° East 482 555 37,000  Level Salt Lake Center
Mon 09:10:00 PM 39.7839 -109.7583 79° East 481 554 37,000  Level Denver Center
Mon 09:11:02 PM 39.8153 -109.5681 78° East 481 554 37,000  Level Denver Center
Mon 09:11:25 PM 39.8247 -109.5147 77° East 482 555 37,000  Level Salt Lake Center
Mon 09:12:26 PM 39.8503 -109.3511 78° East 481 554 37,000  Level Salt Lake Center
Mon 09:13:05 PM 39.8719 -109.2139 78° East 479 551 37,000  Level Denver Center
Mon 09:14:07 PM 39.8978 -109.0486 78° East 483 556 37,000  Level Denver Center
Mon 09:14:29 PM 39.9069 -108.9964 77° East 480 552 37,000  Level Salt Lake Center
Mon 09:15:30 PM 39.9319 -108.8306 79° East 482 555 37,000  Level Salt Lake Center
Mon 09:16:11 PM 39.9533 -108.6917 79° East 482 555 37,000  Level Denver Center
Mon 09:17:13 PM 39.9783 -108.5256 79° East 484 557 37,000  Level Denver Center
Mon 09:17:33 PM 39.9861 -108.4733 79° East 480 552 37,000  Level Salt Lake Center
Mon 09:18:15 PM 40.0025 -108.3631 79° East 477 549 37,000  Level Denver Center
Mon 09:19:17 PM 40.0308 -108.1719 79° East 478 550 37,000  Level Denver Center
Mon 09:20:19 PM 40.0547 -108.0083 79° East 478 550 37,000  Level Denver Center
Mon 09:21:21 PM 40.0908 -107.8192 76° East 481 554 37,000  Level Denver Center
Mon 09:22:23 PM 40.1283 -107.6611 73° East 478 550 37,000  Level Denver Center
Mon 09:23:24 PM 40.1714 -107.4742 73° East 481 554 37,000  Level Denver Center
Mon 09:24:26 PM 40.2069 -107.3144 74° East 479 551 37,000  Level Denver Center
Mon 09:25:28 PM 40.2506 -107.1269 73° East 482 555 37,000  Level Denver Center
Mon 09:26:30 PM 40.2861 -106.9653 74° East 483 556 37,000  Level Denver Center
Mon 09:27:32 PM 40.3258 -106.7911 73° East 485 558 37,000  Level Denver Center
Mon 09:28:34 PM 40.3636 -106.6203 74° East 486 559 37,000  Level Denver Center
Mon 09:29:36 PM 40.4000 -106.4500 74° East 487 560 37,000  Level Denver Center
Mon 09:31:00 PM 40.4490 -106.2139 75° East  Level FlightAware Approximate
Mon 09:31:40 PM 40.4811 -106.0836 75° East 481 554 37,000  Level Denver Center
Mon 09:32:41 PM 40.5161 -105.9150 75° East 480 552 37,000  Level Denver Center
Mon 09:33:43 PM 40.5519 -105.7458 74° East 479 551 37,000  Level Denver Center
Mon 09:34:45 PM 40.5864 -105.5786 75° East 474 545 37,000  Level Denver Center
Mon 09:35:47 PM 40.6217 -105.4092 75° East 478 550 37,000  Level Denver Center
Mon 09:36:49 PM 40.6561 -105.2394 75° East 477 549 37,000  Level Denver Center
Mon 09:37:51 PM 40.6992 -105.0353 74° East 478 550 37,000  Level Denver Center
Mon 09:38:53 PM 40.7339 -104.8642 75° East 481 554 37,000  Level Denver Center
Mon 09:39:55 PM 40.7675 -104.6919 75° East 480 552 37,000  Level Denver Center
Mon 09:40:56 PM 40.8036 -104.5189 75° East 486 559 37,000  Level Denver Center
Mon 09:41:58 PM 40.8372 -104.3450 76° East 488 562 37,000  Level Denver Center
Mon 09:43:00 PM 40.8703 -104.1717 76° East 487 560 37,000  Level Denver Center
Mon 09:44:02 PM 40.9042 -104.0014 75° East 482 555 37,000  Level Denver Center
Mon 09:45:04 PM 40.9439 -103.7936 76° East 485 558 37,000  Level Denver Center
Mon 09:46:06 PM 40.9764 -103.6222 76° East 481 554 37,000  Level Denver Center
Mon 09:47:08 PM 41.0069 -103.4642 76° East 484 557 37,000  Level Denver Center
Mon 09:48:10 PM 41.0431 -103.2700 76° East 487 560 37,000  Level Denver Center
Mon 09:49:12 PM 41.0731 -103.1064 76° East 481 554 37,000  Level Denver Center
Mon 09:50:14 PM 41.1017 -102.9203 78° East 488 562 37,000  Level Denver Center
Mon 09:51:15 PM 41.1161 -102.7186 85° East 491 565 37,000  Level Denver Center
Mon 09:52:17 PM 41.1308 -102.5450 84° East 495 570 37,000  Level Denver Center
Mon 09:53:19 PM 41.1472 -102.3414 84° East 498 573 37,000  Level Denver Center
Mon 09:54:21 PM 41.1586 -102.1653 85° East 499 574 37,000  Level Denver Center
Mon 09:55:23 PM 41.1708 -101.9869 85° East 506 582 37,000  Level Denver Center
Mon 09:56:25 PM 41.1864 -101.7794 84° East 504 580 37,000  Level Denver Center
Mon 09:57:27 PM 41.1997 -101.6017 84° East 505 581 37,000  Level Denver Center
Mon 09:58:29 PM 41.2142 -101.3922 85° East 508 585 37,000  Level Denver Center
Mon 09:59:31 PM 41.2253 -101.2125 85° East 508 585 37,000  Level Denver Center
Mon 10:00:33 PM 41.2394 -101.0028 85° East 507 583 37,000  Level Denver Center
Mon 10:01:35 PM 41.2517 -100.8217 85° East 510 587 37,000  Level Denver Center
Mon 10:02:37 PM 41.2625 -100.6406 85° East 510 587 37,000  Level Denver Center
Mon 10:03:39 PM 41.2753 -100.4314 85° East 506 582 37,000  Level Denver Center
Mon 10:04:41 PM 41.2853 -100.2506 86° East 509 586 37,000  Level Denver Center
Mon 10:05:43 PM 41.2969 -100.0392 86° East 511 588 37,000  Level Denver Center
Mon 10:06:45 PM 41.3067 -99.8556 86° East 517 595 37,000  Level Denver Center
Mon 10:07:47 PM 41.3172 -99.6439 86° East 514 592 37,000  Level Denver Center
Mon 10:08:49 PM 41.3256 -99.4614 86° East 516 594 37,000  Level Denver Center
Mon 10:09:51 PM 41.3367 -99.2567 86° East 519 597 37,000  Level Denver Center
Mon 10:10:53 PM 41.3450 -99.0631 87° East 520 598 37,000  Level Denver Center
Mon 10:11:55 PM 41.3553 -98.8686 86° East 518 596 37,000  Level Denver Center
Mon 10:12:25 PM 41.3561 -98.7914 89° East 519 597 37,000  Level Minneapolis Center
Mon 10:13:26 PM 41.3669 -98.5631 86° East 517 595 37,000  Level Minneapolis Center
Mon 10:14:28 PM 41.3761 -98.3669 86° East 515 593 37,000  Level Minneapolis Center
Mon 10:15:29 PM 41.3817 -98.1778 88° East 511 588 37,000  Level Minneapolis Center
Mon 10:16:31 PM 41.3872 -97.9961 88° East 509 586 37,000  Level Minneapolis Center
Mon 10:17:32 PM 41.3933 -97.8072 87° East 510 587 37,000  Level Minneapolis Center
Mon 10:18:34 PM 41.3978 -97.6192 88° East 508 585 37,000  Level Minneapolis Center
Mon 10:19:35 PM 41.4031 -97.4297 88° East 511 588 37,000  Level Minneapolis Center
Mon 10:20:37 PM 41.4075 -97.2406 88° East 512 589 37,000  Level Minneapolis Center
Mon 10:21:38 PM 41.4122 -97.0506 88° East 513 590 37,000  Level Minneapolis Center
Mon 10:22:39 PM 41.4167 -96.8231 88° East 511 588 37,000  Level Minneapolis Center
Mon 10:23:41 PM 41.4206 -96.6339 88° East 511 588 37,000  Level Minneapolis Center
Mon 10:24:42 PM 41.4244 -96.4439 88° East 511 588 37,000  Level Minneapolis Center
Mon 10:25:44 PM 41.4267 -96.2461 89° East 511 588 37,000  Level Minneapolis Center
Mon 10:26:45 PM 41.4292 -96.0564 89° East 512 589 37,000  Level Minneapolis Center
Mon 10:27:46 PM 41.4322 -95.8703 89° East 506 582 37,000  Level Minneapolis Center
Mon 10:28:48 PM 41.4044 -95.6881 101° East 506 582 37,000  Level Minneapolis Center
Mon 10:29:49 PM 41.3600 -95.5042 108° East 502 578 37,000  Level Minneapolis Center
Mon 10:30:51 PM 41.3183 -95.3275 107° East 500 575 37,000  Level Minneapolis Center
Mon 10:31:52 PM 41.2769 -95.1494 107° East 504 580 37,000  Level Minneapolis Center
Mon 10:32:53 PM 41.2147 -94.9831 116° Southeast 503 579 37,000  Level Minneapolis Center
Mon 10:33:55 PM 41.1489 -94.8181 118° Southeast 505 581 37,000  Level Minneapolis Center
Mon 10:34:56 PM 41.0844 -94.6522 117° Southeast 507 583 37,000  Level Minneapolis Center
Mon 10:35:58 PM 41.0228 -94.4636 113° Southeast 500 575 37,000  Level Minneapolis Center
Mon 10:36:59 PM 41.0253 -94.2769 89° East 503 579 37,000  Level Minneapolis Center
Mon 10:38:00 PM 41.0214 -94.0908 92° East 508 585 37,000  Level Minneapolis Center
Mon 10:39:02 PM 41.0153 -93.9075 92° East 505 581 37,000  Level Minneapolis Center
Mon 10:40:03 PM 41.0108 -93.7217 92° East 507 583 37,000  Level Minneapolis Center
Mon 10:41:05 PM 41.0061 -93.5372 92° East 507 583 37,000  Level Minneapolis Center
Mon 10:42:06 PM 41.0006 -93.3128 92° East 509 586 37,000  Level Minneapolis Center
Mon 10:43:07 PM 40.9947 -93.1278 92° East 507 583 37,000  Level Minneapolis Center
Mon 10:43:38 PM 40.9922 -93.0514 92° East 507 583 37,000  Level Chicago Center
Mon 10:44:39 PM 40.9853 -92.8675 93° East 504 580 37,000  Level Chicago Center
Mon 10:45:41 PM 40.9778 -92.6825 93° East 506 582 37,000  Level Chicago Center
Mon 10:46:42 PM 40.9697 -92.4608 93° East 505 581 37,000  Level Chicago Center
Mon 10:47:44 PM 40.9622 -92.2764 93° East 504 580 37,000  Level Chicago Center
Mon 10:48:45 PM 40.9542 -92.0914 93° East 506 582 37,000  Level Chicago Center
Mon 10:49:47 PM 40.9461 -91.9078 93° East 504 580 37,000  Level Chicago Center
Mon 10:50:48 PM 40.9375 -91.7239 93° East 505 581 37,000  Level Chicago Center
Mon 10:51:50 PM 40.9303 -91.5406 93° East 503 579 37,000  Level Chicago Center
Mon 10:52:51 PM 40.9211 -91.3558 94° East 506 582 37,000  Level Chicago Center
Mon 10:53:53 PM 40.9097 -91.1525 94° East 507 583 37,000  Level Chicago Center
Mon 10:54:54 PM 40.9006 -90.9678 94° East 505 581 37,000  Level Chicago Center
Mon 10:55:56 PM 40.8911 -90.7836 94° East 503 579 37,000  Level Chicago Center
Mon 10:56:57 PM 40.8811 -90.6011 94° East 500 575 37,000  Level Chicago Center
Mon 10:57:58 PM 40.8703 -90.4169 94° East 501 577 37,000  Level Chicago Center
Mon 10:59:00 PM 40.8578 -90.2025 94° East 501 577 37,000  Level Chicago Center
Mon 11:00:01 PM 40.8483 -90.0211 94° East 498 573 37,000  Level Chicago Center
Mon 11:01:02 PM 40.8361 -89.8378 95° East 506 582 37,000  Level Chicago Center
Mon 11:02:04 PM 40.8219 -89.6558 96° East 502 578 37,000  Level Chicago Center
Mon 11:03:05 PM 40.8111 -89.4467 94° East 507 583 37,000  Level Chicago Center
Mon 11:04:07 PM 40.7983 -89.2600 95° East 511 588 37,000  Level Chicago Center
Mon 11:05:08 PM 40.7847 -89.0722 95° East 515 593 37,000  Level Chicago Center
Mon 11:06:09 PM 40.7711 -88.8842 95° East 516 594 37,000  Level Chicago Center
Mon 11:07:11 PM 40.7583 -88.6950 95° East 513 590 37,000  Level Chicago Center
Mon 11:08:12 PM 40.7442 -88.5100 96° East 512 589 37,000  Level Chicago Center
Mon 11:09:14 PM 40.7308 -88.3231 95° East 517 595 37,000  Level Chicago Center
Mon 11:10:15 PM 40.7183 -88.1358 95° East 518 596 37,000  Level Chicago Center
Mon 11:11:16 PM 40.7006 -87.9128 96° East 515 593 37,000  Level Chicago Center
Mon 11:12:17 PM 40.6853 -87.7275 96° East 514 592 37,000  Level Chicago Center
Mon 11:13:19 PM 40.6717 -87.5408 95° East 517 595 37,000  Level Chicago Center
Mon 11:14:20 PM 40.6542 -87.3572 97° East 513 590 37,000  Level Chicago Center
Mon 11:15:21 PM 40.6394 -87.1703 96° East 517 595 37,000  Level Chicago Center
Mon 11:16:23 PM 40.6211 -86.9789 97° East 524 603 37,000  Level Chicago Center
Mon 11:17:24 PM 40.6047 -86.7875 96° East 525 604 37,000  Level Chicago Center
Mon 11:18:25 PM 40.5881 -86.5972 97° East 523 602 37,000  Level Chicago Center
Mon 11:19:26 PM 40.5708 -86.4072 97° East 522 601 37,000  Level Chicago Center
Mon 11:20:27 PM 40.5494 -86.1806 97° East 520 598 37,000  Level Chicago Center
Mon 11:21:29 PM 40.5308 -85.9914 97° East 520 598 37,000  Level Chicago Center
Mon 11:22:30 PM 40.5125 -85.8011 97° East 523 602 37,000  Level Chicago Center
Mon 11:23:31 PM 40.4947 -85.6092 97° East 528 608 37,000  Level Chicago Center
Mon 11:24:32 PM 40.4756 -85.4178 97° East 532 612 37,000  Level Chicago Center
Mon 11:25:34 PM 40.4556 -85.2278 98° East 529 609 37,000  Level Chicago Center
Mon 11:26:35 PM 40.4369 -85.0353 97° East 529 609 37,000  Level Chicago Center
Mon 11:27:03 PM 40.4264 -84.9581 100° East 530 610 37,000  Level Indianapolis Center
Mon 11:28:04 PM 40.4036 -84.7347 98° East 535 616 37,000  Level Indianapolis Center
Mon 11:29:05 PM 40.3825 -84.5419 98° East 532 612 37,000 -49 Level Indianapolis Center
Mon 11:30:07 PM 40.3606 -84.3483 98° East 531 611 36,900  Descending Indianapolis Center
Mon 11:31:08 PM 40.3397 -84.1547 98° East 532 612 37,000  Climbing Indianapolis Center
Mon 11:32:09 PM 40.3172 -83.9611 99° East 532 612 36,900  Descending Indianapolis Center
Mon 11:33:10 PM 40.2944 -83.7650 99° East 537 618 37,000 49 Climbing Indianapolis Center
Mon 11:34:11 PM 40.2725 -83.5700 98° East 534 615 37,000  Level Indianapolis Center
Mon 11:35:13 PM 40.2481 -83.3728 99° East 539 620 37,000  Level Indianapolis Center
Mon 11:36:14 PM 40.2156 -83.1783 102° East 538 619 37,000  Level Indianapolis Center
Mon 11:37:15 PM 40.1797 -82.9844 104° East 540 621 37,000 -49 Level Indianapolis Center
Mon 11:38:16 PM 40.1444 -82.7928 103° East 537 618 36,900  Descending Indianapolis Center
Mon 11:39:18 PM 40.1083 -82.6022 104° East 535 616 37,000  Climbing Indianapolis Center
Mon 11:40:19 PM 40.0728 -82.4133 104° East 534 615 36,900 -443 Descending Indianapolis Center
Mon 11:41:20 PM 40.0361 -82.2233 104° East 534 615 36,100 -738 Descending Indianapolis Center
Mon 11:42:21 PM 40.0000 -82.0342 104° East 533 613 35,400 -590 Descending Indianapolis Center
Mon 11:43:22 PM 39.9639 -81.8456 104° East 532 612 34,900 -197 Descending Indianapolis Center
Mon 11:44:23 PM 39.9269 -81.6578 104° East 532 612 35,000 49 Climbing Indianapolis Center
Mon 11:45:25 PM 39.8897 -81.4692 104° East 533 613 35,000 -146 Level Indianapolis Center
Mon 11:46:26 PM 39.8514 -81.2819 105° East 537 618 34,700 -639 Descending Indianapolis Center
Mon 11:47:27 PM 39.8150 -81.0958 104° East 533 613 33,700 -984 Descending Indianapolis Center
Mon 11:48:28 PM 39.7764 -80.9100 105° East 532 612 32,700 -1,033 Descending Indianapolis Center
Mon 11:49:29 PM 39.7294 -80.6839 105° East 539 620 31,600 -990 Descending Indianapolis Center
Mon 11:50:11 PM 39.7044 -80.5589 105° East 532 612 31,000 -199 Descending Cleveland Center
Mon 11:52:30 PM 39.6231 -80.1583 105° East 525 604 31,000  Level Washington Center
Mon 11:53:30 PM 39.5842 -79.9725 105° East 525 604 31,000  Level Washington Center
Mon 11:54:28 PM 39.5469 -79.7872 105° East 520 598 31,000 -1,513 Level Washington Center
Mon 11:55:29 PM 39.5117 -79.5997 104° East 520 598 28,000 -2,311 Descending Washington Center
Mon 11:56:30 PM 39.4819 -79.4206 102° East 520 598 26,300 -1,835 Descending Washington Center
Mon 11:57:30 PM 39.4442 -79.2278 104° East 510 587 24,300 -1,983 Descending Washington Center
Mon 11:58:28 PM 39.4175 -79.0733 103° East 480 552 22,400 -2,017 Descending Washington Center
Mon 11:59:29 PM 39.3883 -78.9214 104° East 455 524 20,300 -2,100 Descending Washington Center
Tue 12:00:28 AM 39.3633 -78.7753 102° East 430 495 18,200 -2,067 Descending Washington Center
Tue 12:01:28 AM 39.3375 -78.6400 104° East 415 478 16,200 -1,983 Descending Washington Center
Tue 12:02:29 AM 39.3139 -78.5022 102° East 388 447 14,200 -2,000 Descending Washington Center
Tue 12:03:28 AM 39.2878 -78.3725 105° East 376 433 12,200 -1,600 Descending Washington Center
Tue 12:04:29 AM 39.2444 -78.2608 117° Southeast 363 418 11,000 -1,140 Descending Washington Center
Tue 12:05:29 AM 39.2156 -78.1553 109° East 340 391 9,900 -1,210 Descending Washington Center
Tue 12:06:28 AM 39.1883 -78.0525 109° East 317 365 8,600 -1,361 Descending Washington Center
Tue 12:07:28 AM 39.1611 -77.9553 110° East 301 346 7,200 -1,377 Descending Washington Center
Tue 12:08:30 AM 39.1589 -77.8536 92° East 286 329 5,800 -1,350 Descending Washington Center
Tue 12:09:28 AM 39.1586 -77.7519 90° East 281 323 4,500 -1,169 Descending Washington Center
Tue 12:10:28 AM 39.1353 -77.6681 110° East 249 287 3,500 -743 Descending Washington Center
Tue 12:11:13 AM 39.1167 -77.6167 115° Southeast 259 298 3,200 -400 Descending Potomac TRACON

Login

Don't have an account? Register now (free) for customized features, flight alerts, and more!